N.mars — P3TL9 — position and weather

sailwx.info

Track history (hours):
 
Tides and Currents Weather Stations Pressure Air Temp Water Temp Dewpoint Dewpoint Depression Visibility Wind Speed Wind Dir Waves Ship Positions

N.mars

Last reported at 2017-Dec-04 05:27 UTC. Time now 2018-Feb-21 06:44 UTC.
Position N 32°21' E 030°03'.
Warning: this ship's position is months out of date.

Length 228 m; draft 12.5 m.

Type: Tanker. MMSI: 210857000.

Date/timePositionNaut miles runAvg speedWind from/ knotsBaromVisibWave heightAir tempDewpointWater temp
2017-Dec-04 05:27N 32°21' E 030°03'  
2017-Dec-01 15:56N 36°17' E 014°54'613.8
2017-Dec-01 15:30N 36°19' E 014°47'713.5
2017-Dec-01 14:59N 36°21' E 014°39'613.4
2017-Dec-01 14:30N 36°23' E 014°31'713.3
2017-Dec-01 14:00N 36°25' E 014°23'713.4
2017-Dec-01 13:30N 36°27' E 014°15'713.3
2017-Dec-01 13:00N 36°29' E 014°07'713.2
2017-Dec-01 12:29N 36°31' E 013°59'813.2
2017-Dec-01 11:52N 36°34' E 013°49'  
2017-Nov-28 06:21N 36°08' W 007°29'5412.4
2017-Nov-28 01:58N 36°21' W 008°34'1412.5
2017-Nov-28 00:51N 36°24' W 008°51'8610.9
2017-Nov-27 16:57N 37°34' W 009°54'1113.9
2017-Nov-27 16:09N 37°45' W 009°57'214.4
2017-Nov-27 15:59N 37°47' W 009°57'1214.4
2017-Nov-27 15:09N 37°59' W 010°01'214.3
2017-Nov-27 15:00N 38°01' W 010°01'714.6
2017-Nov-27 14:30N 38°08' W 010°03'714.9
2017-Nov-27 14:00N 38°15' W 010°05'715.0
2017-Nov-27 13:30N 38°23' W 010°07'814.9
2017-Nov-27 12:58N 38°31' W 010°09'814.7
2017-Nov-27 12:25N 38°38' W 010°11'614.2
2017-Nov-27 11:59N 38°45' W 010°12'714.6
2017-Nov-27 11:30N 38°52' W 010°12'714.8
2017-Nov-27 11:01N 38°59' W 010°12'714.8
2017-Nov-27 10:31N 39°06' W 010°12'914.5
2017-Nov-27 09:54N 39°15' W 010°12'514.1
2017-Nov-27 09:31N 39°21' W 010°12'67614.1
2017-Nov-25 09:30N 49°40' W 003°51'713.6
2017-Nov-25 08:57N 49°43' W 003°41'613.8
2017-Nov-25 08:30N 49°47' W 003°33'714.0
2017-Nov-25 08:00N 49°50' W 003°23'714.4
2017-Nov-25 07:30N 49°53' W 003°13'714.9
2017-Nov-25 07:00N 49°57' W 003°03'815.2
2017-Nov-25 06:31N 49°59' W 002°52'815.6
2017-Nov-25 06:01N 50°01' W 002°40'816.1
2017-Nov-25 05:30N 50°03' W 002°28'1716.7
2017-Nov-25 04:27N 50°08' W 002°02'716.5
2017-Nov-25 04:00N 50°10' W 001°51'816.1
2017-Nov-25 03:31N 50°13' W 001°39'815.7
2017-Nov-25 03:00N 50°15' W 001°27'1115.0
2017-Nov-25 02:15N 50°18' W 001°10'314.4
2017-Nov-25 02:00N 50°19' W 001°04'813.8
2017-Nov-25 01:27N 50°21' W 000°53'813.3
2017-Nov-25 00:51N 50°23' W 000°41'513.1
2017-Nov-25 00:30N 50°24' W 000°34'613.1
2017-Nov-25 00:00N 50°26' W 000°24'713.4
2017-Nov-24 23:30N 50°27' W 000°14'713.7
2017-Nov-24 23:01N 50°28' W 000°03'714.0
2017-Nov-24 22:31N 50°30' E 000°07'714.4
2017-Nov-24 22:01N 50°32' E 000°18'815.0
2017-Nov-24 21:30N 50°34' E 000°30'815.2
2017-Nov-24 21:00N 50°37' E 000°41'815.6
2017-Nov-24 20:31N 50°42' E 000°50'815.9
2017-Nov-24 20:01N 50°46' E 001°01'815.8
2017-Nov-24 19:31N 50°51' E 001°11'814.9
2017-Nov-24 19:00N 50°56' E 001°20'613.1
2017-Nov-24 18:30N 51°01' E 001°26'612.3
2017-Nov-24 18:00N 51°05' E 001°33'611.7
2017-Nov-24 17:30N 51°10' E 001°40'611.5
2017-Nov-24 17:00N 51°14' E 001°46'611.2
2017-Nov-24 16:30N 51°19' E 001°50'611.3
2017-Nov-24 16:00N 51°24' E 001°54'611.6
2017-Nov-24 15:30N 51°29' E 001°59'612.0
2017-Nov-24 15:00N 51°33' E 002°05'612.3
2017-Nov-24 14:30N 51°38' E 002°12'612.6
2017-Nov-24 14:00N 51°42' E 002°19'7212.9
2017-Nov-24 08:24N 52°30' E 003°47'511.9
2017-Nov-24 08:00N 52°31' E 003°54'612.0
2017-Nov-24 07:30N 52°31' E 004°04'611.7
2017-Nov-24 07:00N 52°31' E 004°14'611.3
2017-Nov-24 06:30N 52°30' E 004°23'4 8.6
2017-Nov-24 06:00N 52°28' E 004°29'4 7.8
2017-Nov-24 05:30N 52°28' E 004°36'  
Track history (hours):
 
Tides and Currents Weather Stations Pressure Air Temp Water Temp Dewpoint Dewpoint Depression Visibility Wind Speed Wind Dir Waves Ship Positions

N.mars

Last reported at 2017-Dec-04 05:27 UTC. Time now 2018-Feb-21 06:44 UTC.
Position N 32°21' E 030°03'.
Warning: this ship's position is months out of date.

Length 228 m; draft 12.5 m.

Type: Tanker. MMSI: 210857000.

Date/timePositionNaut miles runAvg speedWind from/ knotsBaromVisibWave heightAir tempDewpointWater temp
2017-Dec-04 05:27N 32°21' E 030°03'  
2017-Dec-01 15:56N 36°17' E 014°54'613.8
2017-Dec-01 15:30N 36°19' E 014°47'713.5
2017-Dec-01 14:59N 36°21' E 014°39'613.4
2017-Dec-01 14:30N 36°23' E 014°31'713.3
2017-Dec-01 14:00N 36°25' E 014°23'713.4
2017-Dec-01 13:30N 36°27' E 014°15'713.3
2017-Dec-01 13:00N 36°29' E 014°07'713.2
2017-Dec-01 12:29N 36°31' E 013°59'813.2
2017-Dec-01 11:52N 36°34' E 013°49'  
2017-Nov-28 06:21N 36°08' W 007°29'5412.4
2017-Nov-28 01:58N 36°21' W 008°34'1412.5
2017-Nov-28 00:51N 36°24' W 008°51'8610.9
2017-Nov-27 16:57N 37°34' W 009°54'1113.9
2017-Nov-27 16:09N 37°45' W 009°57'214.4
2017-Nov-27 15:59N 37°47' W 009°57'1214.4
2017-Nov-27 15:09N 37°59' W 010°01'214.3
2017-Nov-27 15:00N 38°01' W 010°01'714.6
2017-Nov-27 14:30N 38°08' W 010°03'714.9
2017-Nov-27 14:00N 38°15' W 010°05'715.0
2017-Nov-27 13:30N 38°23' W 010°07'814.9
2017-Nov-27 12:58N 38°31' W 010°09'814.7
2017-Nov-27 12:25N 38°38' W 010°11'614.2
2017-Nov-27 11:59N 38°45' W 010°12'714.6
2017-Nov-27 11:30N 38°52' W 010°12'714.8
2017-Nov-27 11:01N 38°59' W 010°12'714.8
2017-Nov-27 10:31N 39°06' W 010°12'914.5
2017-Nov-27 09:54N 39°15' W 010°12'514.1
2017-Nov-27 09:31N 39°21' W 010°12'67614.1
2017-Nov-25 09:30N 49°40' W 003°51'713.6
2017-Nov-25 08:57N 49°43' W 003°41'613.8
2017-Nov-25 08:30N 49°47' W 003°33'714.0
2017-Nov-25 08:00N 49°50' W 003°23'714.4
2017-Nov-25 07:30N 49°53' W 003°13'714.9
2017-Nov-25 07:00N 49°57' W 003°03'815.2
2017-Nov-25 06:31N 49°59' W 002°52'815.6
2017-Nov-25 06:01N 50°01' W 002°40'816.1
2017-Nov-25 05:30N 50°03' W 002°28'1716.7
2017-Nov-25 04:27N 50°08' W 002°02'716.5
2017-Nov-25 04:00N 50°10' W 001°51'816.1
2017-Nov-25 03:31N 50°13' W 001°39'815.7
2017-Nov-25 03:00N 50°15' W 001°27'1115.0
2017-Nov-25 02:15N 50°18' W 001°10'314.4
2017-Nov-25 02:00N 50°19' W 001°04'813.8
2017-Nov-25 01:27N 50°21' W 000°53'813.3
2017-Nov-25 00:51N 50°23' W 000°41'513.1
2017-Nov-25 00:30N 50°24' W 000°34'613.1
2017-Nov-25 00:00N 50°26' W 000°24'713.4
2017-Nov-24 23:30N 50°27' W 000°14'713.7
2017-Nov-24 23:01N 50°28' W 000°03'714.0
2017-Nov-24 22:31N 50°30' E 000°07'714.4
2017-Nov-24 22:01N 50°32' E 000°18'815.0
2017-Nov-24 21:30N 50°34' E 000°30'815.2
2017-Nov-24 21:00N 50°37' E 000°41'815.6
2017-Nov-24 20:31N 50°42' E 000°50'815.9
2017-Nov-24 20:01N 50°46' E 001°01'815.8
2017-Nov-24 19:31N 50°51' E 001°11'814.9
2017-Nov-24 19:00N 50°56' E 001°20'613.1
2017-Nov-24 18:30N 51°01' E 001°26'612.3
2017-Nov-24 18:00N 51°05' E 001°33'611.7
2017-Nov-24 17:30N 51°10' E 001°40'611.5
2017-Nov-24 17:00N 51°14' E 001°46'611.2
2017-Nov-24 16:30N 51°19' E 001°50'611.3
2017-Nov-24 16:00N 51°24' E 001°54'611.6
2017-Nov-24 15:30N 51°29' E 001°59'612.0
2017-Nov-24 15:00N 51°33' E 002°05'612.3
2017-Nov-24 14:30N 51°38' E 002°12'612.6
2017-Nov-24 14:00N 51°42' E 002°19'7212.9
2017-Nov-24 08:24N 52°30' E 003°47'511.9
2017-Nov-24 08:00N 52°31' E 003°54'612.0
2017-Nov-24 07:30N 52°31' E 004°04'611.7
2017-Nov-24 07:00N 52°31' E 004°14'611.3
2017-Nov-24 06:30N 52°30' E 004°23'4 8.6
2017-Nov-24 06:00N 52°28' E 004°29'4 7.8
2017-Nov-24 05:30N 52°28' E 004°36'  

Dump ship's entire track history